Flight Track Log - Related Links

Times and Time Zones

All times are in EDT time to prevent confusion due to time zone crossing. See the SWA3675 flight status page for this flight to view local times or setup timezone preferences in your user account.

Time Position Orientation Groundspeed Altitude Reporting Facility
EDT Latitude Longitude Course Direction KTS MPH feet Rate Location/Type
Tue 06:42:19 PM 42.7297 -73.8081 243° Southwest 147 169 1,500  Level Boston Center
Tue 06:43:26 PM 42.7106 -73.8586 243° Southwest 233 268 4,700 2,845 Climbing Boston Center
Tue 06:44:15 PM 42.7431 -73.9044 314° West 236 272 7,000 3,413 Climbing Boston Center
Tue 06:45:15 PM 42.7944 -73.9736 315° West 247 284 10,900 3,700 Climbing Boston Center
Tue 06:46:15 PM 42.8347 -74.0708 299° West 264 304 14,400 3,550 Climbing Boston Center
Tue 06:47:15 PM 42.8078 -74.1919 253° West 297 342 18,000 3,150 Climbing Boston Center
Tue 06:48:15 PM 42.7786 -74.3211 253° West 314 361 20,700 2,500 Climbing Boston Center
Tue 06:49:15 PM 42.6789 -74.3069 174° South 260 299 23,000 2,300 Climbing Boston Center
Tue 06:50:15 PM 42.5800 -74.2306 150° Southeast 292 336 25,300 2,400 Climbing Boston Center
Tue 06:51:15 PM 42.4750 -74.1458 149° Southeast 374 430 27,800 1,350 Climbing Boston Center
Tue 06:52:15 PM 42.3700 -74.0644 150° Southeast 407 468 28,000 100 Climbing Boston Center
Tue 06:53:15 PM 42.2647 -73.9831 150° Southeast 428 493 28,000  Level Boston Center
Tue 06:54:15 PM 42.1494 -73.8933 150° Southeast 440 506 28,000  Level Boston Center
Tue 06:55:15 PM 42.0325 -73.9019 183° South 411 473 28,000  Level Boston Center
Tue 06:56:15 PM 41.9194 -73.9467 196° South 406 467 28,000  Level Boston Center
Tue 06:57:54 PM 41.7333 -74.0206 197° South 409 471 28,000  Level New York Center
Tue 06:58:53 PM 41.6175 -74.0675 197° South 419 482 28,000  Level New York Center
Tue 06:59:54 PM 41.5186 -74.1069 197° South 419 482 28,000  Level New York Center
Tue 07:00:52 PM 41.4067 -74.1567 198° South 426 490 28,000  Level New York Center
Tue 07:01:53 PM 41.2908 -74.2006 196° South 426 490 28,000  Level New York Center
Tue 07:02:53 PM 41.1603 -74.2489 196° South 431 496 28,000  Level New York Center
Tue 07:03:54 PM 41.0486 -74.2983 198° South 431 496 28,000  Level New York Center
Tue 07:04:53 PM 40.9306 -74.3417 196° South 436 502 28,000  Level New York Center
Tue 07:05:54 PM 40.8144 -74.3931 199° South 436 502 28,000  Level New York Center
Tue 07:06:53 PM 40.7256 -74.5033 223° Southwest 430 495 28,000  Level New York Center
Tue 07:07:54 PM 40.6483 -74.6331 232° Southwest 439 505 28,000  Level New York Center
Tue 07:08:55 PM 40.5714 -74.7600 231° Southwest 451 519 28,000  Level New York Center
Tue 07:09:53 PM 40.4861 -74.8778 226° Southwest 451 519 28,000 -555 Level New York Center
Tue 07:10:54 PM 40.4047 -74.9956 228° Southwest 451 519 26,900 -1,835 Descending New York Center
Tue 07:11:54 PM 40.3233 -75.1131 228° Southwest 451 519 24,300 -2,695 Descending New York Center
Tue 07:12:52 PM 40.2419 -75.2250 226° Southwest 444 511 21,600 -2,773 Descending New York Center
Tue 07:13:53 PM 40.1608 -75.3339 226° Southwest 424 488 18,800 -1,770 Descending New York Center
Tue 07:14:54 PM 40.0878 -75.4375 227° Southwest 411 473 18,000 -393 Descending New York Center
Tue 07:15:55 PM 40.0153 -75.5331 225° Southwest 386 444 18,000  Level New York Center
Tue 07:16:53 PM 39.9444 -75.6336 227° Southwest 381 438 18,000 -202 Level New York Center
Tue 07:17:54 PM 39.8794 -75.7456 233° Southwest 381 438 17,600 -793 Descending New York Center
Tue 07:18:54 PM 39.8206 -75.8550 235° Southwest 386 444 16,400 -1,714 Descending New York Center
Tue 07:21:10 PM 39.6833 -76.1000 234° Southwest 342 394 12,000 -1,714 Descending Potomac TRACON
Tue 07:22:10 PM 39.6333 -76.2000 237° Southwest 308 354 10,800 -1,286 Descending Potomac TRACON
Tue 07:23:16 PM 39.5833 -76.3000 237° Southwest 303 349 9,300 -1,143 Descending Potomac TRACON
Tue 07:24:16 PM 39.5500 -76.3833 243° Southwest 306 352 8,400 -700 Descending Potomac TRACON
Tue 07:25:16 PM 39.6000 -76.4667 308° West 278 320 7,900 -600 Descending Potomac TRACON
Tue 07:26:16 PM 39.6333 -76.5500 297° West 260 299 7,200 -950 Descending Potomac TRACON
Tue 07:27:16 PM 39.6000 -76.6167 237° Southwest 236 272 6,000 -1,100 Descending Potomac TRACON
Tue 07:28:16 PM 39.5500 -76.6833 226° Southwest 240 276 5,000 -650 Descending Potomac TRACON
Tue 07:29:16 PM 39.5167 -76.7500 237° Southwest 233 268 4,700 -500 Descending Potomac TRACON
Tue 07:30:16 PM 39.4667 -76.8000 218° Southwest 235 270 4,000 -350 Descending Potomac TRACON
Tue 07:31:16 PM 39.4167 -76.8667 226° Southwest 220 253 4,000  Level Potomac TRACON
Tue 07:32:16 PM 39.3833 -76.9167 229° Southwest 216 249 4,000  Level Potomac TRACON
Tue 07:33:22 PM 39.3333 -76.9833 226° Southwest 210 242 4,000  Level Potomac TRACON
Tue 07:34:16 PM 39.2833 -77.0167 207° Southwest 213 245 4,000 -105 Level Potomac TRACON
Tue 07:35:16 PM 39.2500 -77.0167 180° South 183 211 3,800 -500 Descending Potomac TRACON
Tue 07:36:16 PM 39.2167 -76.9667 131° Southeast 175 201 3,000 -400 Descending Potomac TRACON
Tue 07:37:16 PM 39.1833 -76.9167 131° Southeast 170 196 3,000 -250 Level Potomac TRACON
Tue 07:38:16 PM 39.1833 -76.8500 90° East 165 190 2,500 -600 Descending Potomac TRACON
Tue 07:39:16 PM 39.1833 -76.8000 90° East 148 170 1,800 -700 Descending Potomac TRACON

Login

Don't have an account? Register now (free) for customized features, flight alerts, and more!